createdAt,value
2022-10-31T00:00:56.653Z,14.57
2022-10-31T00:03:23.556Z,13.30
2022-10-31T00:05:50.958Z,17.80
2022-10-31T00:08:18.180Z,21.60
2022-10-31T00:10:46.569Z,13.65
2022-10-31T00:13:14.727Z,17.05
2022-10-31T00:15:41.896Z,20.05
2022-10-31T00:18:09.948Z,17.88
2022-10-31T00:20:37.072Z,18.23
2022-10-31T00:23:05.499Z,21.77
2022-10-31T00:25:36.651Z,15.05
2022-10-31T00:28:04.929Z,16.52
2022-10-31T00:30:31.853Z,19.60
2022-10-31T00:32:58.816Z,19.60
2022-10-31T00:35:25.816Z,16.70
2022-10-31T00:37:54.031Z,13.77
2022-10-31T00:40:20.702Z,16.02
2022-10-31T00:42:47.442Z,15.20
2022-10-31T00:45:14.207Z,13.10
2022-10-31T00:47:40.865Z,13.02
2022-10-31T00:50:08.526Z,14.15
2022-10-31T00:52:35.640Z,16.98
2022-10-31T00:55:03.092Z,15.10
2022-10-31T00:57:29.771Z,22.60
2022-10-31T00:59:56.480Z,12.68
2022-10-31T01:02:23.273Z,16.45
2022-10-31T01:04:49.975Z,14.25
2022-10-31T01:07:16.801Z,13.48
2022-10-31T01:09:45.111Z,20.10
2022-10-31T01:12:11.868Z,18.45
2022-10-31T01:14:44.541Z,17.48
2022-10-31T01:17:11.960Z,12.93
2022-10-31T01:19:38.643Z,16.70
2022-10-31T01:22:05.448Z,14.30
2022-10-31T01:24:32.113Z,14.85
2022-10-31T01:26:58.788Z,20.05
2022-10-31T01:29:25.492Z,18.10
2022-10-31T01:31:52.179Z,18.42
2022-10-31T01:34:18.841Z,14.57
2022-10-31T01:36:51.905Z,16.70
2022-10-31T01:39:20.030Z,15.73
2022-10-31T01:41:50.580Z,15.85
2022-10-31T01:44:17.376Z,13.45
2022-10-31T01:46:59.740Z,14.83
2022-10-31T01:49:32.252Z,15.02
2022-10-31T01:52:17.424Z,12.85
2022-10-31T01:54:51.344Z,15.55
2022-10-31T01:57:19.340Z,16.20
2022-10-31T01:59:50.293Z,13.13
2022-10-31T02:02:19.360Z,16.55
2022-10-31T02:04:47.899Z,16.60
2022-10-31T02:07:24.313Z,18.63
2022-10-31T02:09:52.361Z,13.27
2022-10-31T02:12:19.537Z,15.77
2022-10-31T02:14:47.129Z,15.27
2022-10-31T02:17:14.747Z,14.52
2022-10-31T02:19:53.430Z,14.55
2022-10-31T02:22:33.532Z,16.17
2022-10-31T02:25:27.478Z,17.07
2022-10-31T02:28:13.258Z,16.15
2022-10-31T02:31:07.456Z,14.68
2022-10-31T02:33:41.889Z,15.18
2022-10-31T02:36:23.739Z,13.95
2022-10-31T02:38:57.205Z,11.57
2022-10-31T02:42:07.807Z,11.95
2022-10-31T02:44:43.230Z,8.63
2022-10-31T02:47:17.037Z,6.63
2022-10-31T02:49:47.217Z,7.32
2022-10-31T02:52:24.068Z,7.53
2022-10-31T02:54:51.027Z,8.50
2022-10-31T02:57:24.307Z,5.10
2022-10-31T02:59:57.312Z,6.15
2022-10-31T03:02:43.671Z,6.13
2022-10-31T03:05:32.462Z,5.70
2022-10-31T03:08:14.257Z,9.73
2022-10-31T03:11:17.632Z,7.45
2022-10-31T03:13:47.277Z,5.70
2022-10-31T03:16:39.499Z,6.05
2022-10-31T03:19:10.321Z,5.70
2022-10-31T03:21:50.430Z,6.15
2022-10-31T03:24:17.588Z,7.57
2022-10-31T03:26:50.491Z,9.88
2022-10-31T03:29:22.155Z,7.63
2022-10-31T03:31:53.057Z,7.37
2022-10-31T03:34:22.803Z,10.38
2022-10-31T03:36:52.938Z,6.32
2022-10-31T03:39:22.579Z,7.60
2022-10-31T03:42:08.878Z,8.20
2022-10-31T03:44:38.373Z,10.00
2022-10-31T03:47:05.683Z,6.50
2022-10-31T03:49:33.700Z,6.40
2022-10-31T03:52:29.224Z,6.47
2022-10-31T03:55:06.391Z,5.90
2022-10-31T03:57:33.086Z,12.87
2022-10-31T04:00:08.713Z,5.40
2022-10-31T04:03:02.663Z,5.97
2022-10-31T04:05:32.305Z,7.15
2022-10-31T04:08:04.186Z,7.57
2022-10-31T04:10:33.540Z,8.97
2022-10-31T04:13:09.046Z,7.10
2022-10-31T04:15:45.621Z,5.68
2022-10-31T04:18:12.483Z,6.80
2022-10-31T04:20:41.594Z,8.85
2022-10-31T04:23:36.282Z,5.90
2022-10-31T04:26:14.365Z,5.70
2022-10-31T04:28:43.873Z,6.68
2022-10-31T04:31:12.886Z,5.85
2022-10-31T04:33:39.797Z,5.97
2022-10-31T04:36:06.852Z,6.53
2022-10-31T04:38:33.789Z,7.30
2022-10-31T04:41:00.781Z,6.28
2022-10-31T04:43:47.743Z,6.28
2022-10-31T04:46:14.437Z,6.65
2022-10-31T04:48:41.229Z,7.87
2022-10-31T04:51:08.306Z,6.70
2022-10-31T04:53:35.188Z,9.00
2022-10-31T04:56:40.426Z,6.93
2022-10-31T04:59:14.278Z,9.70
2022-10-31T05:01:51.435Z,5.63
2022-10-31T05:04:23.534Z,7.65
2022-10-31T05:06:50.270Z,9.45
2022-10-31T05:09:16.947Z,7.63
2022-10-31T05:11:43.791Z,7.47
2022-10-31T05:14:34.063Z,8.53
2022-10-31T05:17:19.329Z,7.05
2022-10-31T05:20:05.187Z,11.02
2022-10-31T05:22:59.294Z,7.50
2022-10-31T05:25:28.248Z,6.20
2022-10-31T05:27:56.060Z,7.00
2022-10-31T05:30:31.626Z,10.13
2022-10-31T05:32:59.244Z,9.20
2022-10-31T05:35:44.832Z,23.13
2022-10-31T05:38:31.328Z,16.48
2022-10-31T05:41:03.068Z,13.43
2022-10-31T05:43:32.069Z,31.55
2022-10-31T05:45:59.749Z,25.00
2022-10-31T05:48:45.046Z,31.30
2022-10-31T05:51:34.769Z,25.92
2022-10-31T05:54:04.376Z,23.13
2022-10-31T05:56:31.194Z,24.83
2022-10-31T05:58:57.947Z,45.38
2022-10-31T06:01:26.434Z,69.40
2022-10-31T06:03:53.533Z,29.60
2022-10-31T06:06:22.870Z,69.17
2022-10-31T06:08:50.071Z,18.20
2022-10-31T06:11:20.503Z,40.75
2022-10-31T06:14:02.483Z,72.82
2022-10-31T06:16:35.763Z,116.25
2022-10-31T06:19:22.222Z,146.97
2022-10-31T06:21:49.059Z,61.83
2022-10-31T06:24:18.710Z,31.98
2022-10-31T06:26:54.162Z,29.27
2022-10-31T06:29:21.907Z,19.25
2022-10-31T06:31:59.927Z,24.77
2022-10-31T06:34:26.692Z,14.63
2022-10-31T06:36:53.363Z,13.13
2022-10-31T06:39:23.652Z,16.30
2022-10-31T06:41:50.483Z,18.63
2022-10-31T06:44:20.106Z,37.43
2022-10-31T06:46:56.160Z,62.97
2022-10-31T06:49:46.125Z,66.82
2022-10-31T06:52:17.733Z,79.07
2022-10-31T06:54:44.392Z,83.38
2022-10-31T06:57:11.295Z,52.13
2022-10-31T06:59:39.287Z,286.77
2022-10-31T07:02:18.866Z,235.20
2022-10-31T07:04:45.582Z,159.68
2022-10-31T07:07:17.412Z,84.93
2022-10-31T07:09:45.315Z,30.67
2022-10-31T07:12:16.273Z,29.42
2022-10-31T07:14:49.336Z,35.22
2022-10-31T07:17:16.672Z,101.70
2022-10-31T07:19:44.991Z,119.45
2022-10-31T07:22:13.433Z,29.57
2022-10-31T07:24:42.800Z,25.65
2022-10-31T07:27:29.726Z,32.85
2022-10-31T07:29:56.419Z,31.95
2022-10-31T07:32:23.406Z,86.60
2022-10-31T07:34:56.365Z,117.17
2022-10-31T07:37:34.134Z,57.80
2022-10-31T07:40:00.829Z,52.17
2022-10-31T07:42:28.025Z,52.05
2022-10-31T07:44:56.857Z,20.40
2022-10-31T07:47:30.428Z,82.27
2022-10-31T07:50:30.526Z,58.13
2022-10-31T07:53:08.971Z,36.88
2022-10-31T07:55:58.407Z,139.15
2022-10-31T07:58:29.431Z,121.18
2022-10-31T08:00:59.377Z,123.43
2022-10-31T08:03:34.368Z,23.90
2022-10-31T08:06:10.115Z,196.20
2022-10-31T08:09:05.851Z,104.20
2022-10-31T08:11:33.134Z,58.05
2022-10-31T08:14:01.906Z,98.00
2022-10-31T08:16:28.589Z,129.45
2022-10-31T08:19:00.091Z,77.53
2022-10-31T08:21:28.883Z,22.15
2022-10-31T08:23:55.555Z,62.80
2022-10-31T08:26:24.552Z,19.00
2022-10-31T08:28:55.501Z,59.00
2022-10-31T08:31:23.787Z,29.45
2022-10-31T08:33:50.438Z,22.75
2022-10-31T08:36:22.852Z,20.90
2022-10-31T08:39:03.379Z,19.10
2022-10-31T08:41:31.464Z,18.58
2022-10-31T08:43:59.704Z,18.05
2022-10-31T08:46:26.370Z,17.88
2022-10-31T08:48:53.731Z,18.27
2022-10-31T08:51:21.060Z,16.63
2022-10-31T08:53:51.305Z,20.73
2022-10-31T08:56:33.117Z,22.00
2022-10-31T08:59:01.072Z,23.15
2022-10-31T09:01:48.103Z,21.17
2022-10-31T09:04:14.956Z,22.10
2022-10-31T09:06:50.357Z,18.90
2022-10-31T09:09:22.452Z,24.42
2022-10-31T09:11:49.216Z,25.70
2022-10-31T09:14:18.764Z,26.63
2022-10-31T09:17:11.086Z,23.13
2022-10-31T09:19:56.660Z,24.75
2022-10-31T09:22:27.728Z,22.10
2022-10-31T09:24:54.423Z,22.85
2022-10-31T09:27:21.219Z,23.70
2022-10-31T09:29:48.537Z,24.50
2022-10-31T09:32:16.931Z,24.55
2022-10-31T09:34:46.327Z,24.15
2022-10-31T09:37:16.906Z,23.25
2022-10-31T09:39:43.594Z,30.23
2022-10-31T09:42:36.761Z,25.50
2022-10-31T09:45:19.331Z,22.60
2022-10-31T09:48:23.704Z,28.25
2022-10-31T09:51:13.655Z,27.83
2022-10-31T09:54:26.103Z,26.20
2022-10-31T09:56:52.976Z,24.77
2022-10-31T09:59:26.734Z,24.25
2022-10-31T10:02:25.342Z,25.17
2022-10-31T10:05:00.125Z,22.50
2022-10-31T10:07:56.073Z,25.02
2022-10-31T10:10:52.539Z,23.50
2022-10-31T10:13:46.200Z,21.52
2022-10-31T10:16:22.443Z,22.25
2022-10-31T10:19:03.395Z,25.33
2022-10-31T10:21:51.412Z,24.30
2022-10-31T10:24:20.833Z,24.03
2022-10-31T10:27:19.269Z,22.42
2022-10-31T10:30:11.944Z,21.77
2022-10-31T10:32:51.018Z,23.90
2022-10-31T10:35:37.132Z,20.73
2022-10-31T10:38:29.607Z,23.00
2022-10-31T10:40:56.428Z,20.27
2022-10-31T10:43:35.332Z,23.23
2022-10-31T10:46:51.608Z,22.02
2022-10-31T10:49:38.383Z,23.90
2022-10-31T10:52:50.317Z,22.57
2022-10-31T10:55:25.336Z,16.70
2022-10-31T10:57:58.019Z,19.92
2022-10-31T11:00:35.448Z,21.27
2022-10-31T11:03:02.415Z,29.60
2022-10-31T11:05:43.466Z,21.07
2022-10-31T11:08:10.281Z,21.33
2022-10-31T11:10:37.092Z,15.75
2022-10-31T11:13:22.187Z,18.63
2022-10-31T11:15:55.041Z,21.58
2022-10-31T11:21:00.349Z,17.30
2022-10-31T11:23:29.043Z,20.02
2022-10-31T11:26:01.444Z,22.98
2022-10-31T11:28:35.932Z,23.30
2022-10-31T11:31:16.838Z,21.80
2022-10-31T11:33:52.099Z,21.33
2022-10-31T11:36:24.960Z,22.83
2022-10-31T11:38:52.955Z,26.95
2022-10-31T11:41:19.574Z,24.02
2022-10-31T11:43:53.316Z,22.00
2022-10-31T11:46:25.216Z,25.75
2022-10-31T11:48:54.924Z,32.95
2022-10-31T11:51:25.110Z,28.00
2022-10-31T11:53:56.944Z,27.58
2022-10-31T11:56:27.231Z,27.57
2022-10-31T11:59:02.951Z,25.50
2022-10-31T12:01:31.625Z,29.60
2022-10-31T12:04:10.295Z,29.10
2022-10-31T12:06:39.487Z,29.42
2022-10-31T12:09:25.084Z,25.30
2022-10-31T12:12:06.780Z,28.65
2022-10-31T12:14:40.341Z,29.80
2022-10-31T12:17:36.270Z,28.73
2022-10-31T12:20:24.053Z,29.88
2022-10-31T12:23:04.573Z,28.50
2022-10-31T12:25:41.529Z,29.95
2022-10-31T12:28:32.421Z,23.27
2022-10-31T12:31:42.620Z,25.08
2022-10-31T12:34:27.873Z,25.67
2022-10-31T12:37:08.032Z,25.93
2022-10-31T12:40:03.999Z,26.55
2022-10-31T12:42:55.355Z,33.78
2022-10-31T12:45:31.231Z,29.45
2022-10-31T12:48:06.889Z,30.38
2022-10-31T12:51:02.840Z,30.97
2022-10-31T12:53:54.355Z,32.00
2022-10-31T12:56:56.938Z,28.65
2022-10-31T12:59:43.140Z,32.08
2022-10-31T13:02:36.312Z,31.67
2022-10-31T13:05:12.239Z,34.83
2022-10-31T13:08:05.555Z,28.33
2022-10-31T13:10:48.888Z,29.13
2022-10-31T13:13:19.215Z,24.35
2022-10-31T13:15:53.963Z,30.88
2022-10-31T13:18:29.992Z,33.73
2022-10-31T13:21:00.078Z,33.33
2022-10-31T13:26:55.180Z,29.55
2022-10-31T13:29:34.951Z,31.55
2022-10-31T13:32:05.980Z,34.07
2022-10-31T13:34:32.582Z,34.40
2022-10-31T13:37:06.664Z,34.10
2022-10-31T13:39:39.896Z,29.67
2022-10-31T13:42:32.350Z,33.22
2022-10-31T13:45:14.461Z,38.87
2022-10-31T13:47:43.160Z,36.65
2022-10-31T13:50:28.808Z,32.08
2022-10-31T13:53:15.029Z,31.83
2022-10-31T13:55:45.277Z,36.65
2022-10-31T13:58:27.076Z,40.73
2022-10-31T14:01:11.997Z,27.73
2022-10-31T14:06:45.026Z,38.47
2022-10-31T14:09:22.839Z,40.90
2022-10-31T14:11:51.214Z,31.57
2022-10-31T14:14:24.161Z,34.80
2022-10-31T14:16:57.280Z,33.67
2022-10-31T14:19:26.035Z,36.70
2022-10-31T14:21:53.900Z,39.13
2022-10-31T14:24:51.429Z,37.33
2022-10-31T14:27:31.719Z,29.90
2022-10-31T14:30:30.938Z,37.60
2022-10-31T14:33:10.067Z,36.17
2022-10-31T14:35:57.375Z,36.92
2022-10-31T14:38:47.184Z,33.37
2022-10-31T14:41:29.329Z,39.15
2022-10-31T14:48:12.418Z,37.15
2022-10-31T14:50:57.002Z,32.03
2022-10-31T14:53:51.736Z,29.93
2022-10-31T14:56:41.399Z,40.10
2022-10-31T14:59:16.828Z,31.60
2022-10-31T15:02:00.880Z,33.60
2022-10-31T15:04:36.809Z,28.83
2022-10-31T15:07:09.321Z,33.93
2022-10-31T15:09:42.311Z,36.53
2022-10-31T15:12:28.763Z,34.53
2022-10-31T15:14:56.788Z,35.13
2022-10-31T15:17:25.239Z,35.50
2022-10-31T15:19:53.249Z,40.43
2022-10-31T15:22:24.136Z,34.92
2022-10-31T15:24:57.032Z,33.05
2022-10-31T15:27:24.776Z,36.70
2022-10-31T15:29:53.927Z,40.33
2022-10-31T15:32:28.914Z,35.13
2022-10-31T15:34:57.644Z,40.85
2022-10-31T15:37:26.130Z,38.20
2022-10-31T15:39:53.348Z,35.67
2022-10-31T15:42:25.863Z,40.17
2022-10-31T15:44:57.468Z,39.17
2022-10-31T15:47:28.627Z,32.88
2022-10-31T15:50:03.783Z,40.40
2022-10-31T15:55:59.046Z,33.55
2022-10-31T15:58:47.119Z,35.63
2022-10-31T16:01:36.566Z,36.88
2022-10-31T16:04:15.442Z,37.10
2022-10-31T16:06:51.569Z,33.47
2022-10-31T16:09:25.375Z,33.55
2022-10-31T16:11:52.358Z,32.90
2022-10-31T16:14:25.700Z,36.78
2022-10-31T16:17:24.576Z,32.47
2022-10-31T16:20:01.535Z,31.60
2022-10-31T16:26:21.014Z,31.07
2022-10-31T16:36:40.401Z,33.03
2022-10-31T16:39:07.853Z,38.58
2022-10-31T16:41:41.533Z,37.53
2022-10-31T16:44:16.269Z,37.88
2022-10-31T16:46:44.619Z,37.28
2022-10-31T16:49:20.155Z,37.25
2022-10-31T16:51:46.846Z,31.95
2022-10-31T16:54:13.776Z,32.83
2022-10-31T16:56:40.463Z,34.20
2022-10-31T16:59:16.144Z,36.38
2022-10-31T17:01:53.829Z,39.85
2022-10-31T17:04:31.352Z,36.70
2022-10-31T17:06:58.351Z,36.43
2022-10-31T17:09:27.467Z,35.75
2022-10-31T17:11:57.474Z,32.03
2022-10-31T17:14:25.886Z,36.47
2022-10-31T17:16:52.657Z,41.55
2022-10-31T17:19:19.712Z,42.63
2022-10-31T17:21:49.047Z,33.75
2022-10-31T17:24:16.158Z,40.63
2022-10-31T17:26:43.043Z,44.67
2022-10-31T17:29:21.614Z,35.97
2022-10-31T17:31:49.271Z,37.10
2022-10-31T17:34:19.274Z,37.45
2022-10-31T17:36:51.674Z,39.88
2022-10-31T17:39:20.371Z,39.10
2022-10-31T17:41:51.604Z,32.88
2022-10-31T17:44:20.045Z,34.83
2022-10-31T17:46:50.913Z,39.38
2022-10-31T17:49:23.095Z,38.75
2022-10-31T17:51:54.698Z,35.65
2022-10-31T17:54:30.875Z,39.53
2022-10-31T17:57:06.243Z,39.53
2022-10-31T17:59:50.117Z,41.55
2022-10-31T18:02:35.070Z,35.47
2022-10-31T18:05:22.514Z,42.65
2022-10-31T18:07:54.069Z,35.65
2022-10-31T18:15:08.997Z,36.38
2022-10-31T18:17:41.053Z,41.47
2022-10-31T18:20:15.455Z,36.22
2022-10-31T18:22:48.736Z,37.45
2022-10-31T18:25:20.083Z,36.60
2022-10-31T18:27:53.149Z,33.22
2022-10-31T18:30:23.165Z,35.55
2022-10-31T18:32:52.559Z,37.30
2022-10-31T18:35:22.942Z,33.20
2022-10-31T18:37:59.344Z,34.80
2022-10-31T18:40:36.920Z,34.22
2022-10-31T18:43:11.352Z,29.95
2022-10-31T18:45:47.177Z,35.35
2022-10-31T18:48:20.276Z,37.00
2022-10-31T18:50:49.960Z,41.27
2022-10-31T18:53:18.517Z,34.97
2022-10-31T18:55:50.442Z,38.58
2022-10-31T18:58:19.391Z,36.42
2022-10-31T19:00:47.934Z,33.45
2022-10-31T19:03:21.960Z,38.77
2022-10-31T19:05:56.334Z,29.15
2022-10-31T19:08:24.568Z,31.50
2022-10-31T19:10:51.589Z,33.72
2022-10-31T19:13:20.389Z,32.75
2022-10-31T19:15:58.943Z,32.73
2022-10-31T19:18:27.574Z,32.75
2022-10-31T19:20:55.007Z,31.45
2022-10-31T19:23:23.388Z,31.92
2022-10-31T19:25:52.069Z,30.25
2022-10-31T19:28:20.814Z,30.87
2022-10-31T19:31:00.946Z,26.70
2022-10-31T19:33:36.227Z,25.05
2022-10-31T19:36:19.634Z,26.15
2022-10-31T19:38:51.653Z,25.77
2022-10-31T19:41:28.050Z,26.27
2022-10-31T19:43:56.421Z,22.55
2022-10-31T19:49:12.758Z,22.55
2022-10-31T19:51:40.101Z,20.25
2022-10-31T19:54:08.657Z,24.83
2022-10-31T19:56:36.124Z,22.98
2022-10-31T19:59:05.394Z,21.65
2022-10-31T20:01:33.039Z,20.73
2022-10-31T20:04:00.033Z,29.50
2022-10-31T20:06:41.930Z,16.27
2022-10-31T20:09:16.124Z,23.33
2022-10-31T20:11:45.196Z,23.35
2022-10-31T20:14:14.843Z,20.20
2022-10-31T20:16:43.072Z,23.83
2022-10-31T20:19:10.335Z,20.97
2022-10-31T20:21:40.127Z,18.30
2022-10-31T20:24:09.169Z,22.42
2022-10-31T20:26:38.052Z,15.05
2022-10-31T20:29:04.875Z,21.27
2022-10-31T20:31:35.133Z,14.83
2022-10-31T20:34:02.445Z,18.42
2022-10-31T20:36:30.765Z,19.40
2022-10-31T20:38:58.510Z,17.40
2022-10-31T20:41:25.829Z,18.80
2022-10-31T20:43:52.729Z,16.80
2022-10-31T20:46:22.727Z,11.90
2022-10-31T20:48:49.972Z,12.90
2022-10-31T20:51:21.460Z,14.48
2022-10-31T20:53:52.380Z,16.48
2022-10-31T20:56:21.301Z,13.43
2022-10-31T20:58:48.839Z,16.88
2022-10-31T21:01:21.666Z,12.13
2022-10-31T21:03:49.285Z,11.15
2022-10-31T21:06:19.139Z,13.77
2022-10-31T21:08:46.646Z,10.53
2022-10-31T21:11:18.727Z,16.70
2022-10-31T21:13:47.116Z,19.20
2022-10-31T21:16:16.304Z,12.75
2022-10-31T21:18:44.755Z,17.35
2022-10-31T21:21:17.699Z,11.87
2022-10-31T21:23:44.834Z,13.93
2022-10-31T21:26:18.233Z,15.23
2022-10-31T21:28:45.375Z,14.70
2022-10-31T21:31:15.114Z,13.93
2022-10-31T21:33:42.515Z,15.93
2022-10-31T21:36:10.271Z,14.40
2022-10-31T21:38:38.863Z,13.38
2022-10-31T21:41:15.646Z,12.32
2022-10-31T21:43:44.361Z,16.90
2022-10-31T21:46:18.395Z,13.97
2022-10-31T21:48:50.402Z,19.08
2022-10-31T21:51:25.449Z,19.35
2022-10-31T21:54:11.210Z,14.52
2022-10-31T21:56:38.371Z,11.65
2022-10-31T21:59:06.139Z,18.10
2022-10-31T22:01:34.155Z,14.55
2022-10-31T22:04:02.500Z,17.70
2022-10-31T22:06:31.035Z,11.07
2022-10-31T22:09:00.709Z,11.13
2022-10-31T22:11:29.205Z,11.53
2022-10-31T22:14:00.552Z,9.45
2022-10-31T22:16:29.447Z,11.57
2022-10-31T22:18:58.946Z,14.90
2022-10-31T22:21:27.999Z,16.02
2022-10-31T22:24:00.589Z,13.10
2022-10-31T22:26:30.884Z,14.68
2022-10-31T22:28:59.647Z,17.52
2022-10-31T22:31:27.094Z,9.85
2022-10-31T22:33:55.474Z,13.02
2022-10-31T22:36:24.879Z,12.93
2022-10-31T22:38:53.675Z,12.50
2022-10-31T22:41:25.385Z,9.75
2022-10-31T22:43:55.292Z,13.25
2022-10-31T22:46:25.414Z,15.10
2022-10-31T22:48:56.757Z,15.10
2022-10-31T22:51:30.418Z,13.48
2022-10-31T22:53:57.480Z,14.98
2022-10-31T22:56:30.600Z,14.15
2022-10-31T22:59:16.310Z,13.23
2022-10-31T23:01:46.049Z,12.57
2022-10-31T23:04:14.334Z,22.23
2022-10-31T23:06:41.446Z,10.70
2022-10-31T23:09:09.056Z,13.20
2022-10-31T23:11:39.834Z,15.52
2022-10-31T23:14:13.438Z,14.40
2022-10-31T23:16:50.953Z,14.70
2022-10-31T23:19:22.747Z,12.18
2022-10-31T23:22:03.550Z,17.70
2022-10-31T23:24:39.649Z,13.38
2022-10-31T23:27:15.934Z,15.03
2022-10-31T23:29:55.258Z,15.02
2022-10-31T23:32:32.535Z,12.63
2022-10-31T23:35:07.059Z,10.90
2022-10-31T23:37:35.640Z,9.85
2022-10-31T23:40:02.700Z,16.23
2022-10-31T23:42:29.579Z,10.75
2022-10-31T23:44:56.831Z,14.32
2022-10-31T23:47:23.966Z,12.48
2022-10-31T23:49:51.029Z,13.52
2022-10-31T23:52:18.599Z,14.93
2022-10-31T23:54:45.479Z,12.73
2022-10-31T23:57:13.588Z,11.02
2022-10-31T23:59:40.260Z,18.33
